sensor_id;sensor_type;location;lat;lon;timestamp;temperature;humidity
17715;DHT22;8977;50.902;4.314;2022-10-23T00:01:18;18.40;99.90
17715;DHT22;8977;50.902;4.314;2022-10-23T00:03:50;18.40;99.90
17715;DHT22;8977;50.902;4.314;2022-10-23T00:06:17;18.40;99.90
17715;DHT22;8977;50.902;4.314;2022-10-23T00:08:45;18.40;99.90
17715;DHT22;8977;50.902;4.314;2022-10-23T00:11:14;18.40;99.90
17715;DHT22;8977;50.902;4.314;2022-10-23T00:13:41;18.30;99.90
17715;DHT22;8977;50.902;4.314;2022-10-23T00:16:08;18.30;99.90
17715;DHT22;8977;50.902;4.314;2022-10-23T00:18:36;18.30;99.90
17715;DHT22;8977;50.902;4.314;2022-10-23T00:21:06;18.30;99.90
17715;DHT22;8977;50.902;4.314;2022-10-23T00:23:33;18.30;99.90
17715;DHT22;8977;50.902;4.314;2022-10-23T00:26:01;18.30;99.90
17715;DHT22;8977;50.902;4.314;2022-10-23T00:28:28;18.40;99.90
17715;DHT22;8977;50.902;4.314;2022-10-23T00:30:55;18.30;99.90
17715;DHT22;8977;50.902;4.314;2022-10-23T00:33:22;18.30;99.90
17715;DHT22;8977;50.902;4.314;2022-10-23T00:35:48;18.30;99.90
17715;DHT22;8977;50.902;4.314;2022-10-23T00:38:16;18.30;99.90
17715;DHT22;8977;50.902;4.314;2022-10-23T00:40:43;18.30;99.90
17715;DHT22;8977;50.902;4.314;2022-10-23T00:43:16;18.30;99.90
17715;DHT22;8977;50.902;4.314;2022-10-23T00:45:44;18.30;99.90
17715;DHT22;8977;50.902;4.314;2022-10-23T00:48:11;18.40;99.90
17715;DHT22;8977;50.902;4.314;2022-10-23T00:50:39;18.40;99.90
17715;DHT22;8977;50.902;4.314;2022-10-23T00:53:07;18.40;99.90
17715;DHT22;8977;50.902;4.314;2022-10-23T00:55:37;18.40;99.90
17715;DHT22;8977;50.902;4.314;2022-10-23T00:58:05;18.40;99.90
17715;DHT22;8977;50.902;4.314;2022-10-23T01:00:42;18.40;99.90
17715;DHT22;8977;50.902;4.314;2022-10-23T01:03:10;18.40;99.90
17715;DHT22;8977;50.902;4.314;2022-10-23T01:05:43;18.40;99.90
17715;DHT22;8977;50.902;4.314;2022-10-23T01:08:16;18.40;99.90
17715;DHT22;8977;50.902;4.314;2022-10-23T01:10:48;18.40;99.90
17715;DHT22;8977;50.902;4.314;2022-10-23T01:13:25;18.40;99.90
17715;DHT22;8977;50.902;4.314;2022-10-23T01:16:00;18.40;99.90
17715;DHT22;8977;50.902;4.314;2022-10-23T01:18:36;18.40;99.90
17715;DHT22;8977;50.902;4.314;2022-10-23T01:21:08;18.40;99.90
17715;DHT22;8977;50.902;4.314;2022-10-23T01:24:02;18.40;99.90
17715;DHT22;8977;50.902;4.314;2022-10-23T01:26:50;18.50;99.90
17715;DHT22;8977;50.902;4.314;2022-10-23T01:29:26;18.50;99.90
17715;DHT22;8977;50.902;4.314;2022-10-23T01:31:57;18.40;99.90
17715;DHT22;8977;50.902;4.314;2022-10-23T01:34:29;18.50;99.90
17715;DHT22;8977;50.902;4.314;2022-10-23T01:37:00;18.50;99.90
17715;DHT22;8977;50.902;4.314;2022-10-23T01:39:33;18.50;99.90
17715;DHT22;8977;50.902;4.314;2022-10-23T01:42:05;18.50;99.90
17715;DHT22;8977;50.902;4.314;2022-10-23T01:44:37;18.50;99.90
17715;DHT22;8977;50.902;4.314;2022-10-23T01:47:08;18.50;99.90
17715;DHT22;8977;50.902;4.314;2022-10-23T01:49:37;18.50;99.90
17715;DHT22;8977;50.902;4.314;2022-10-23T01:52:08;18.50;99.90
17715;DHT22;8977;50.902;4.314;2022-10-23T01:54:38;18.50;99.90
17715;DHT22;8977;50.902;4.314;2022-10-23T01:57:07;18.50;99.90
17715;DHT22;8977;50.902;4.314;2022-10-23T01:59:37;18.50;99.90
17715;DHT22;8977;50.902;4.314;2022-10-23T02:02:05;18.50;99.90
17715;DHT22;8977;50.902;4.314;2022-10-23T02:04:37;18.50;99.90
17715;DHT22;8977;50.902;4.314;2022-10-23T02:07:05;18.50;99.90
17715;DHT22;8977;50.902;4.314;2022-10-23T02:09:32;18.50;99.90
17715;DHT22;8977;50.902;4.314;2022-10-23T02:12:05;18.50;99.90
17715;DHT22;8977;50.902;4.314;2022-10-23T02:14:39;18.50;99.90
17715;DHT22;8977;50.902;4.314;2022-10-23T02:17:13;18.60;99.90
17715;DHT22;8977;50.902;4.314;2022-10-23T02:19:46;18.50;99.90
17715;DHT22;8977;50.902;4.314;2022-10-23T02:22:19;18.50;99.90
17715;DHT22;8977;50.902;4.314;2022-10-23T02:24:50;18.50;99.90
17715;DHT22;8977;50.902;4.314;2022-10-23T02:27:23;18.50;99.90
17715;DHT22;8977;50.902;4.314;2022-10-23T02:29:55;18.60;99.90
17715;DHT22;8977;50.902;4.314;2022-10-23T02:32:23;18.50;99.90
17715;DHT22;8977;50.902;4.314;2022-10-23T02:34:52;18.60;99.90
17715;DHT22;8977;50.902;4.314;2022-10-23T02:37:19;18.50;99.90
17715;DHT22;8977;50.902;4.314;2022-10-23T02:39:46;18.50;99.90
17715;DHT22;8977;50.902;4.314;2022-10-23T02:42:17;18.50;99.90
17715;DHT22;8977;50.902;4.314;2022-10-23T02:44:56;18.50;99.90
17715;DHT22;8977;50.902;4.314;2022-10-23T02:47:34;18.50;99.90
17715;DHT22;8977;50.902;4.314;2022-10-23T02:50:09;18.60;99.90
17715;DHT22;8977;50.902;4.314;2022-10-23T02:52:44;18.60;99.90
17715;DHT22;8977;50.902;4.314;2022-10-23T02:55:20;18.50;99.90
17715;DHT22;8977;50.902;4.314;2022-10-23T02:57:53;18.50;99.90
17715;DHT22;8977;50.902;4.314;2022-10-23T03:00:22;18.50;99.90
17715;DHT22;8977;50.902;4.314;2022-10-23T03:02:54;18.60;99.90
17715;DHT22;8977;50.902;4.314;2022-10-23T03:05:25;18.50;99.90
17715;DHT22;8977;50.902;4.314;2022-10-23T03:07:53;18.60;99.90
17715;DHT22;8977;50.902;4.314;2022-10-23T03:10:20;18.50;99.90
17715;DHT22;8977;50.902;4.314;2022-10-23T03:12:47;18.50;99.90
17715;DHT22;8977;50.902;4.314;2022-10-23T03:15:15;18.50;99.90
17715;DHT22;8977;50.902;4.314;2022-10-23T03:17:44;18.50;99.90
17715;DHT22;8977;50.902;4.314;2022-10-23T03:20:11;18.50;99.90
17715;DHT22;8977;50.902;4.314;2022-10-23T03:22:38;18.50;99.90
17715;DHT22;8977;50.902;4.314;2022-10-23T03:25:06;18.50;99.90
17715;DHT22;8977;50.902;4.314;2022-10-23T03:27:33;18.50;99.90
17715;DHT22;8977;50.902;4.314;2022-10-23T03:30:00;18.50;99.90
17715;DHT22;8977;50.902;4.314;2022-10-23T03:32:27;18.50;99.90
17715;DHT22;8977;50.902;4.314;2022-10-23T03:34:55;18.50;99.90
17715;DHT22;8977;50.902;4.314;2022-10-23T03:37:22;18.50;99.90
17715;DHT22;8977;50.902;4.314;2022-10-23T03:39:49;18.40;99.90
17715;DHT22;8977;50.902;4.314;2022-10-23T03:42:16;18.40;99.90
17715;DHT22;8977;50.902;4.314;2022-10-23T03:44:43;18.40;99.90
17715;DHT22;8977;50.902;4.314;2022-10-23T03:47:10;18.40;99.90
17715;DHT22;8977;50.902;4.314;2022-10-23T03:49:38;18.40;99.90
17715;DHT22;8977;50.902;4.314;2022-10-23T03:52:07;18.40;99.90
17715;DHT22;8977;50.902;4.314;2022-10-23T03:54:34;18.40;99.90
17715;DHT22;8977;50.902;4.314;2022-10-23T03:57:01;18.40;99.90
17715;DHT22;8977;50.902;4.314;2022-10-23T03:59:28;18.40;99.90
17715;DHT22;8977;50.902;4.314;2022-10-23T04:01:55;18.40;99.90
17715;DHT22;8977;50.902;4.314;2022-10-23T04:04:22;18.30;99.90
17715;DHT22;8977;50.902;4.314;2022-10-23T04:06:49;18.30;99.90
17715;DHT22;8977;50.902;4.314;2022-10-23T04:09:17;18.40;99.90
17715;DHT22;8977;50.902;4.314;2022-10-23T04:11:44;18.30;99.90
17715;DHT22;8977;50.902;4.314;2022-10-23T04:14:12;18.30;99.90
17715;DHT22;8977;50.902;4.314;2022-10-23T04:16:39;18.30;99.90
17715;DHT22;8977;50.902;4.314;2022-10-23T04:19:06;18.30;99.90
17715;DHT22;8977;50.902;4.314;2022-10-23T04:21:33;18.30;99.90
17715;DHT22;8977;50.902;4.314;2022-10-23T04:23:59;18.30;99.90
17715;DHT22;8977;50.902;4.314;2022-10-23T04:26:28;18.30;99.90
17715;DHT22;8977;50.902;4.314;2022-10-23T04:28:54;18.30;99.90
17715;DHT22;8977;50.902;4.314;2022-10-23T04:31:21;18.30;99.90
17715;DHT22;8977;50.902;4.314;2022-10-23T04:33:48;18.30;99.90
17715;DHT22;8977;50.902;4.314;2022-10-23T04:36:15;18.30;99.90
17715;DHT22;8977;50.902;4.314;2022-10-23T04:38:42;18.30;99.90
17715;DHT22;8977;50.902;4.314;2022-10-23T04:41:09;18.40;99.90
17715;DHT22;8977;50.902;4.314;2022-10-23T04:43:37;18.40;99.90
17715;DHT22;8977;50.902;4.314;2022-10-23T04:46:04;18.30;99.90
17715;DHT22;8977;50.902;4.314;2022-10-23T04:48:32;18.30;99.90
17715;DHT22;8977;50.902;4.314;2022-10-23T04:51:01;18.30;99.90
17715;DHT22;8977;50.902;4.314;2022-10-23T04:53:28;18.30;99.90
17715;DHT22;8977;50.902;4.314;2022-10-23T04:55:57;18.30;99.90
17715;DHT22;8977;50.902;4.314;2022-10-23T04:58:25;18.30;99.90
17715;DHT22;8977;50.902;4.314;2022-10-23T05:00:54;18.30;99.90
17715;DHT22;8977;50.902;4.314;2022-10-23T05:03:21;18.30;99.90
17715;DHT22;8977;50.902;4.314;2022-10-23T05:05:51;18.30;99.90
17715;DHT22;8977;50.902;4.314;2022-10-23T05:08:19;18.30;99.90
17715;DHT22;8977;50.902;4.314;2022-10-23T05:10:46;18.30;99.90
17715;DHT22;8977;50.902;4.314;2022-10-23T05:13:13;18.40;99.90
17715;DHT22;8977;50.902;4.314;2022-10-23T05:15:40;18.40;99.90
17715;DHT22;8977;50.902;4.314;2022-10-23T05:18:12;18.40;99.90
17715;DHT22;8977;50.902;4.314;2022-10-23T05:20:39;18.40;99.90
17715;DHT22;8977;50.902;4.314;2022-10-23T05:23:08;18.40;99.90
17715;DHT22;8977;50.902;4.314;2022-10-23T05:25:36;18.40;99.90
17715;DHT22;8977;50.902;4.314;2022-10-23T05:28:03;18.40;99.90
17715;DHT22;8977;50.902;4.314;2022-10-23T05:30:30;18.40;99.90
17715;DHT22;8977;50.902;4.314;2022-10-23T05:32:58;18.40;99.90
17715;DHT22;8977;50.902;4.314;2022-10-23T05:35:28;18.40;99.90
17715;DHT22;8977;50.902;4.314;2022-10-23T05:37:57;18.40;99.90
17715;DHT22;8977;50.902;4.314;2022-10-23T05:40:25;18.40;99.90
17715;DHT22;8977;50.902;4.314;2022-10-23T05:42:52;18.40;99.90
17715;DHT22;8977;50.902;4.314;2022-10-23T05:45:18;18.40;99.90
17715;DHT22;8977;50.902;4.314;2022-10-23T05:47:46;18.40;99.90
17715;DHT22;8977;50.902;4.314;2022-10-23T05:50:14;18.40;99.90
17715;DHT22;8977;50.902;4.314;2022-10-23T05:52:45;18.40;99.90
17715;DHT22;8977;50.902;4.314;2022-10-23T05:55:12;18.40;99.90
17715;DHT22;8977;50.902;4.314;2022-10-23T05:57:39;18.50;99.90
17715;DHT22;8977;50.902;4.314;2022-10-23T06:00:07;18.40;99.90
17715;DHT22;8977;50.902;4.314;2022-10-23T06:02:34;18.40;99.90
17715;DHT22;8977;50.902;4.314;2022-10-23T06:05:01;18.40;99.90
17715;DHT22;8977;50.902;4.314;2022-10-23T06:07:28;18.40;99.90
17715;DHT22;8977;50.902;4.314;2022-10-23T06:09:57;18.40;99.90
17715;DHT22;8977;50.902;4.314;2022-10-23T06:12:24;18.40;99.90
17715;DHT22;8977;50.902;4.314;2022-10-23T06:14:51;18.40;99.90
17715;DHT22;8977;50.902;4.314;2022-10-23T06:17:18;18.40;99.90
17715;DHT22;8977;50.902;4.314;2022-10-23T06:19:45;18.40;99.90
17715;DHT22;8977;50.902;4.314;2022-10-23T06:22:12;18.40;99.90
17715;DHT22;8977;50.902;4.314;2022-10-23T06:24:39;18.40;99.90
17715;DHT22;8977;50.902;4.314;2022-10-23T06:27:07;18.40;99.90
17715;DHT22;8977;50.902;4.314;2022-10-23T06:29:34;18.40;99.90
17715;DHT22;8977;50.902;4.314;2022-10-23T06:32:01;18.40;99.90
17715;DHT22;8977;50.902;4.314;2022-10-23T06:34:27;18.40;99.90
17715;DHT22;8977;50.902;4.314;2022-10-23T06:36:54;18.40;99.90
17715;DHT22;8977;50.902;4.314;2022-10-23T06:39:22;18.40;99.90
17715;DHT22;8977;50.902;4.314;2022-10-23T06:41:49;18.40;99.90
17715;DHT22;8977;50.902;4.314;2022-10-23T06:44:17;18.40;99.90
17715;DHT22;8977;50.902;4.314;2022-10-23T06:46:44;18.40;99.90
17715;DHT22;8977;50.902;4.314;2022-10-23T06:49:12;18.40;99.90
17715;DHT22;8977;50.902;4.314;2022-10-23T06:51:40;18.40;99.90
17715;DHT22;8977;50.902;4.314;2022-10-23T06:54:07;18.40;99.90
17715;DHT22;8977;50.902;4.314;2022-10-23T06:56:34;18.40;99.90
17715;DHT22;8977;50.902;4.314;2022-10-23T06:59:00;18.40;99.90
17715;DHT22;8977;50.902;4.314;2022-10-23T07:01:29;18.40;99.90
17715;DHT22;8977;50.902;4.314;2022-10-23T07:03:55;18.40;99.90
17715;DHT22;8977;50.902;4.314;2022-10-23T07:06:22;18.40;99.90
17715;DHT22;8977;50.902;4.314;2022-10-23T07:08:49;18.40;99.90
17715;DHT22;8977;50.902;4.314;2022-10-23T07:11:17;18.40;99.90
17715;DHT22;8977;50.902;4.314;2022-10-23T07:13:43;18.30;99.90
17715;DHT22;8977;50.902;4.314;2022-10-23T07:16:12;18.40;99.90
17715;DHT22;8977;50.902;4.314;2022-10-23T07:18:41;18.30;99.90
17715;DHT22;8977;50.902;4.314;2022-10-23T07:21:08;18.30;99.90
17715;DHT22;8977;50.902;4.314;2022-10-23T07:23:35;18.40;99.90
17715;DHT22;8977;50.902;4.314;2022-10-23T07:26:04;18.40;99.90
17715;DHT22;8977;50.902;4.314;2022-10-23T07:28:31;18.40;99.90
17715;DHT22;8977;50.902;4.314;2022-10-23T07:30:58;18.40;99.90
17715;DHT22;8977;50.902;4.314;2022-10-23T07:33:25;18.40;99.90
17715;DHT22;8977;50.902;4.314;2022-10-23T07:35:53;18.40;99.90
17715;DHT22;8977;50.902;4.314;2022-10-23T07:38:20;18.40;99.90
17715;DHT22;8977;50.902;4.314;2022-10-23T07:40:47;18.40;99.90
17715;DHT22;8977;50.902;4.314;2022-10-23T07:43:14;18.40;99.90
17715;DHT22;8977;50.902;4.314;2022-10-23T07:45:45;18.40;99.90
17715;DHT22;8977;50.902;4.314;2022-10-23T07:48:12;18.40;99.90
17715;DHT22;8977;50.902;4.314;2022-10-23T07:50:39;18.50;99.90
17715;DHT22;8977;50.902;4.314;2022-10-23T07:53:11;18.60;99.90
17715;DHT22;8977;50.902;4.314;2022-10-23T07:55:40;18.50;99.90
17715;DHT22;8977;50.902;4.314;2022-10-23T07:58:07;18.60;99.90
17715;DHT22;8977;50.902;4.314;2022-10-23T08:00:33;18.60;99.90
17715;DHT22;8977;50.902;4.314;2022-10-23T08:03:00;18.60;99.90
17715;DHT22;8977;50.902;4.314;2022-10-23T08:05:27;18.60;99.90
17715;DHT22;8977;50.902;4.314;2022-10-23T08:07:54;18.60;99.90
17715;DHT22;8977;50.902;4.314;2022-10-23T08:10:22;18.60;99.90
17715;DHT22;8977;50.902;4.314;2022-10-23T08:12:48;18.70;99.90
17715;DHT22;8977;50.902;4.314;2022-10-23T08:15:15;18.60;99.90
17715;DHT22;8977;50.902;4.314;2022-10-23T08:17:42;18.70;99.90
17715;DHT22;8977;50.902;4.314;2022-10-23T08:20:09;18.70;99.90
17715;DHT22;8977;50.902;4.314;2022-10-23T08:22:38;18.70;99.90
17715;DHT22;8977;50.902;4.314;2022-10-23T08:25:05;18.70;99.90
17715;DHT22;8977;50.902;4.314;2022-10-23T08:27:33;18.70;99.90
17715;DHT22;8977;50.902;4.314;2022-10-23T08:30:00;18.70;99.90
17715;DHT22;8977;50.902;4.314;2022-10-23T08:32:28;18.70;99.90
17715;DHT22;8977;50.902;4.314;2022-10-23T08:34:55;18.70;99.90
17715;DHT22;8977;50.902;4.314;2022-10-23T08:37:22;18.70;99.90
17715;DHT22;8977;50.902;4.314;2022-10-23T08:39:48;18.70;99.90
17715;DHT22;8977;50.902;4.314;2022-10-23T08:42:20;18.70;99.90
17715;DHT22;8977;50.902;4.314;2022-10-23T08:44:55;18.80;99.90
17715;DHT22;8977;50.902;4.314;2022-10-23T08:47:27;18.80;99.90
17715;DHT22;8977;50.902;4.314;2022-10-23T08:49:58;18.80;99.90
17715;DHT22;8977;50.902;4.314;2022-10-23T08:52:32;18.80;99.90
17715;DHT22;8977;50.902;4.314;2022-10-23T08:55:09;18.80;99.90
17715;DHT22;8977;50.902;4.314;2022-10-23T08:57:42;18.80;99.90
17715;DHT22;8977;50.902;4.314;2022-10-23T09:00:15;18.80;99.90
17715;DHT22;8977;50.902;4.314;2022-10-23T09:02:44;18.80;99.90
17715;DHT22;8977;50.902;4.314;2022-10-23T09:05:14;18.80;99.90
17715;DHT22;8977;50.902;4.314;2022-10-23T09:07:53;18.80;99.90
17715;DHT22;8977;50.902;4.314;2022-10-23T09:10:36;18.80;99.90
17715;DHT22;8977;50.902;4.314;2022-10-23T09:13:20;18.80;99.90
17715;DHT22;8977;50.902;4.314;2022-10-23T09:15:53;18.80;99.90
17715;DHT22;8977;50.902;4.314;2022-10-23T09:18:23;18.80;99.90
17715;DHT22;8977;50.902;4.314;2022-10-23T09:20:50;18.90;99.90
17715;DHT22;8977;50.902;4.314;2022-10-23T09:23:21;18.90;99.90
17715;DHT22;8977;50.902;4.314;2022-10-23T09:25:49;18.90;99.90
17715;DHT22;8977;50.902;4.314;2022-10-23T09:28:22;18.90;99.90
17715;DHT22;8977;50.902;4.314;2022-10-23T09:30:51;18.90;99.90
17715;DHT22;8977;50.902;4.314;2022-10-23T09:33:21;18.90;99.90
17715;DHT22;8977;50.902;4.314;2022-10-23T09:35:53;18.90;99.90
17715;DHT22;8977;50.902;4.314;2022-10-23T09:38:31;18.90;99.90
17715;DHT22;8977;50.902;4.314;2022-10-23T09:41:02;18.90;99.90
17715;DHT22;8977;50.902;4.314;2022-10-23T09:43:31;18.90;99.90
17715;DHT22;8977;50.902;4.314;2022-10-23T09:46:01;18.90;99.90
17715;DHT22;8977;50.902;4.314;2022-10-23T09:48:29;19.00;99.90
17715;DHT22;8977;50.902;4.314;2022-10-23T09:50:58;19.00;99.90
17715;DHT22;8977;50.902;4.314;2022-10-23T09:53:30;19.00;99.90
17715;DHT22;8977;50.902;4.314;2022-10-23T09:55:59;19.00;99.90
17715;DHT22;8977;50.902;4.314;2022-10-23T09:58:32;19.00;99.90
17715;DHT22;8977;50.902;4.314;2022-10-23T10:01:01;19.00;99.90
17715;DHT22;8977;50.902;4.314;2022-10-23T10:03:28;19.10;99.90
17715;DHT22;8977;50.902;4.314;2022-10-23T10:05:58;19.10;99.90
17715;DHT22;8977;50.902;4.314;2022-10-23T10:08:34;19.10;99.90
17715;DHT22;8977;50.902;4.314;2022-10-23T10:11:09;19.10;99.90
17715;DHT22;8977;50.902;4.314;2022-10-23T10:13:54;19.10;99.90
17715;DHT22;8977;50.902;4.314;2022-10-23T10:16:32;19.10;99.90
17715;DHT22;8977;50.902;4.314;2022-10-23T10:19:05;19.20;99.90
17715;DHT22;8977;50.902;4.314;2022-10-23T10:21:41;19.20;99.90
17715;DHT22;8977;50.902;4.314;2022-10-23T10:24:13;19.20;99.90
17715;DHT22;8977;50.902;4.314;2022-10-23T10:26:47;19.20;99.90
17715;DHT22;8977;50.902;4.314;2022-10-23T10:29:22;19.20;99.90
17715;DHT22;8977;50.902;4.314;2022-10-23T10:32:05;19.20;99.90
17715;DHT22;8977;50.902;4.314;2022-10-23T10:34:42;19.30;99.90
17715;DHT22;8977;50.902;4.314;2022-10-23T10:37:23;19.30;99.90
17715;DHT22;8977;50.902;4.314;2022-10-23T10:39:58;19.30;99.90
17715;DHT22;8977;50.902;4.314;2022-10-23T10:42:46;19.30;99.90
17715;DHT22;8977;50.902;4.314;2022-10-23T10:45:27;19.30;99.90
17715;DHT22;8977;50.902;4.314;2022-10-23T10:48:08;19.40;99.90
17715;DHT22;8977;50.902;4.314;2022-10-23T10:50:44;19.30;99.90
17715;DHT22;8977;50.902;4.314;2022-10-23T10:53:18;19.40;99.90
17715;DHT22;8977;50.902;4.314;2022-10-23T10:55:48;19.40;99.90
17715;DHT22;8977;50.902;4.314;2022-10-23T10:58:20;19.40;99.90
17715;DHT22;8977;50.902;4.314;2022-10-23T11:00:51;19.40;99.90
17715;DHT22;8977;50.902;4.314;2022-10-23T11:03:29;19.50;99.90
17715;DHT22;8977;50.902;4.314;2022-10-23T11:06:02;19.50;99.90
17715;DHT22;8977;50.902;4.314;2022-10-23T11:08:34;19.40;99.90
17715;DHT22;8977;50.902;4.314;2022-10-23T11:11:05;19.40;99.90
17715;DHT22;8977;50.902;4.314;2022-10-23T11:13:34;19.50;99.90
17715;DHT22;8977;50.902;4.314;2022-10-23T11:16:04;19.50;99.90
17715;DHT22;8977;50.902;4.314;2022-10-23T11:18:36;19.50;99.90
17715;DHT22;8977;50.902;4.314;2022-10-23T11:21:18;19.50;99.90
17715;DHT22;8977;50.902;4.314;2022-10-23T11:24:14;19.50;99.90
17715;DHT22;8977;50.902;4.314;2022-10-23T11:27:06;19.50;99.90
17715;DHT22;8977;50.902;4.314;2022-10-23T11:30:10;19.50;99.90
17715;DHT22;8977;50.902;4.314;2022-10-23T11:32:53;19.60;99.90
17715;DHT22;8977;50.902;4.314;2022-10-23T11:35:37;19.60;99.90
17715;DHT22;8977;50.902;4.314;2022-10-23T11:38:15;19.60;99.90
17715;DHT22;8977;50.902;4.314;2022-10-23T11:40:44;19.60;99.90
17715;DHT22;8977;50.902;4.314;2022-10-23T11:43:12;19.60;99.90
17715;DHT22;8977;50.902;4.314;2022-10-23T11:45:39;19.70;99.90
17715;DHT22;8977;50.902;4.314;2022-10-23T11:48:20;19.70;99.90
17715;DHT22;8977;50.902;4.314;2022-10-23T11:50:53;19.70;99.90
17715;DHT22;8977;50.902;4.314;2022-10-23T11:53:26;19.70;99.90
17715;DHT22;8977;50.902;4.314;2022-10-23T11:55:58;19.70;99.90
17715;DHT22;8977;50.902;4.314;2022-10-23T11:58:27;19.80;99.90
17715;DHT22;8977;50.902;4.314;2022-10-23T12:01:01;19.80;99.90
17715;DHT22;8977;50.902;4.314;2022-10-23T12:03:38;19.80;99.90
17715;DHT22;8977;50.902;4.314;2022-10-23T12:06:18;19.90;99.90
17715;DHT22;8977;50.902;4.314;2022-10-23T12:08:50;19.90;99.90
17715;DHT22;8977;50.902;4.314;2022-10-23T12:11:39;19.90;99.90
17715;DHT22;8977;50.902;4.314;2022-10-23T12:14:30;20.00;99.90
17715;DHT22;8977;50.902;4.314;2022-10-23T12:16:58;20.00;99.90
17715;DHT22;8977;50.902;4.314;2022-10-23T12:19:27;20.00;99.90
17715;DHT22;8977;50.902;4.314;2022-10-23T12:21:58;20.00;99.90
17715;DHT22;8977;50.902;4.314;2022-10-23T12:24:39;20.10;99.90
17715;DHT22;8977;50.902;4.314;2022-10-23T12:27:15;20.10;99.90
17715;DHT22;8977;50.902;4.314;2022-10-23T12:32:50;20.10;99.90
17715;DHT22;8977;50.902;4.314;2022-10-23T12:35:57;20.10;99.90
17715;DHT22;8977;50.902;4.314;2022-10-23T12:38:29;20.10;99.90
17715;DHT22;8977;50.902;4.314;2022-10-23T12:41:00;20.10;99.90
17715;DHT22;8977;50.902;4.314;2022-10-23T12:43:30;20.10;99.90
17715;DHT22;8977;50.902;4.314;2022-10-23T12:46:01;20.10;99.90
17715;DHT22;8977;50.902;4.314;2022-10-23T12:48:31;20.20;99.90
17715;DHT22;8977;50.902;4.314;2022-10-23T12:50:58;20.20;99.90
17715;DHT22;8977;50.902;4.314;2022-10-23T12:53:25;20.20;99.90
17715;DHT22;8977;50.902;4.314;2022-10-23T12:55:56;20.30;99.90
17715;DHT22;8977;50.902;4.314;2022-10-23T12:58:25;20.30;99.90
17715;DHT22;8977;50.902;4.314;2022-10-23T13:00:56;20.40;99.90
17715;DHT22;8977;50.902;4.314;2022-10-23T13:03:24;20.40;99.90
17715;DHT22;8977;50.902;4.314;2022-10-23T13:05:53;20.50;99.90
17715;DHT22;8977;50.902;4.314;2022-10-23T13:08:28;20.50;99.90
17715;DHT22;8977;50.902;4.314;2022-10-23T13:10:59;20.50;99.90
17715;DHT22;8977;50.902;4.314;2022-10-23T13:13:26;20.60;99.90
17715;DHT22;8977;50.902;4.314;2022-10-23T13:15:53;20.60;99.90
17715;DHT22;8977;50.902;4.314;2022-10-23T13:18:20;20.60;99.90
17715;DHT22;8977;50.902;4.314;2022-10-23T13:20:57;20.60;99.90
17715;DHT22;8977;50.902;4.314;2022-10-23T13:23:28;20.60;99.90
17715;DHT22;8977;50.902;4.314;2022-10-23T13:25:59;20.60;99.90
17715;DHT22;8977;50.902;4.314;2022-10-23T13:28:30;20.60;99.90
17715;DHT22;8977;50.902;4.314;2022-10-23T13:31:01;20.60;99.90
17715;DHT22;8977;50.902;4.314;2022-10-23T13:33:32;20.60;99.90
17715;DHT22;8977;50.902;4.314;2022-10-23T13:36:02;20.50;99.90
17715;DHT22;8977;50.902;4.314;2022-10-23T13:38:31;20.50;99.90
17715;DHT22;8977;50.902;4.314;2022-10-23T13:41:01;20.50;99.90
17715;DHT22;8977;50.902;4.314;2022-10-23T13:43:28;20.50;99.90
17715;DHT22;8977;50.902;4.314;2022-10-23T13:45:56;20.50;99.90
17715;DHT22;8977;50.902;4.314;2022-10-23T13:48:23;20.40;99.90
17715;DHT22;8977;50.902;4.314;2022-10-23T13:50:51;20.40;99.90
17715;DHT22;8977;50.902;4.314;2022-10-23T13:53:18;20.50;99.90
17715;DHT22;8977;50.902;4.314;2022-10-23T13:55:47;20.40;99.90
17715;DHT22;8977;50.902;4.314;2022-10-23T13:58:17;20.40;99.90
17715;DHT22;8977;50.902;4.314;2022-10-23T14:00:45;20.40;99.90
17715;DHT22;8977;50.902;4.314;2022-10-23T14:03:14;20.40;99.90
17715;DHT22;8977;50.902;4.314;2022-10-23T14:05:41;20.40;99.90
17715;DHT22;8977;50.902;4.314;2022-10-23T14:08:08;20.40;99.90
17715;DHT22;8977;50.902;4.314;2022-10-23T14:10:35;20.40;99.90
17715;DHT22;8977;50.902;4.314;2022-10-23T14:13:02;20.40;99.90
17715;DHT22;8977;50.902;4.314;2022-10-23T14:15:30;20.40;99.90
17715;DHT22;8977;50.902;4.314;2022-10-23T14:17:57;20.40;99.90
17715;DHT22;8977;50.902;4.314;2022-10-23T14:20:24;20.40;99.90
17715;DHT22;8977;50.902;4.314;2022-10-23T14:22:51;20.40;99.90
17715;DHT22;8977;50.902;4.314;2022-10-23T14:25:18;20.50;99.90
17715;DHT22;8977;50.902;4.314;2022-10-23T14:27:45;20.50;99.90
17715;DHT22;8977;50.902;4.314;2022-10-23T14:30:12;20.40;99.90
17715;DHT22;8977;50.902;4.314;2022-10-23T14:32:40;20.40;99.90
17715;DHT22;8977;50.902;4.314;2022-10-23T14:35:08;20.40;99.90
17715;DHT22;8977;50.902;4.314;2022-10-23T14:37:35;20.40;99.90
17715;DHT22;8977;50.902;4.314;2022-10-23T14:40:02;20.40;99.90
17715;DHT22;8977;50.902;4.314;2022-10-23T14:42:30;20.40;99.90
17715;DHT22;8977;50.902;4.314;2022-10-23T14:44:59;20.40;99.90
17715;DHT22;8977;50.902;4.314;2022-10-23T14:47:26;20.40;99.90
17715;DHT22;8977;50.902;4.314;2022-10-23T14:49:55;20.40;99.90
17715;DHT22;8977;50.902;4.314;2022-10-23T14:52:22;20.40;99.90
17715;DHT22;8977;50.902;4.314;2022-10-23T14:54:50;20.40;99.90
17715;DHT22;8977;50.902;4.314;2022-10-23T14:57:17;20.40;99.90
17715;DHT22;8977;50.902;4.314;2022-10-23T14:59:46;20.40;99.90
17715;DHT22;8977;50.902;4.314;2022-10-23T15:02:13;20.40;99.90
17715;DHT22;8977;50.902;4.314;2022-10-23T15:04:40;20.40;99.90
17715;DHT22;8977;50.902;4.314;2022-10-23T15:07:08;20.40;99.90
17715;DHT22;8977;50.902;4.314;2022-10-23T15:09:35;20.40;99.90
17715;DHT22;8977;50.902;4.314;2022-10-23T15:12:04;20.40;99.90
17715;DHT22;8977;50.902;4.314;2022-10-23T15:14:32;20.30;99.90
17715;DHT22;8977;50.902;4.314;2022-10-23T15:16:58;20.30;99.90
17715;DHT22;8977;50.902;4.314;2022-10-23T15:19:25;20.40;99.90
17715;DHT22;8977;50.902;4.314;2022-10-23T15:21:52;20.40;99.90
17715;DHT22;8977;50.902;4.314;2022-10-23T15:24:21;20.40;99.90
17715;DHT22;8977;50.902;4.314;2022-10-23T15:26:47;20.30;99.90
17715;DHT22;8977;50.902;4.314;2022-10-23T15:29:17;20.30;99.90
17715;DHT22;8977;50.902;4.314;2022-10-23T15:31:51;20.30;99.90
17715;DHT22;8977;50.902;4.314;2022-10-23T15:34:20;20.30;99.90
17715;DHT22;8977;50.902;4.314;2022-10-23T15:36:48;20.30;99.90
17715;DHT22;8977;50.902;4.314;2022-10-23T15:39:16;20.30;99.90
17715;DHT22;8977;50.902;4.314;2022-10-23T15:41:45;20.30;99.90
17715;DHT22;8977;50.902;4.314;2022-10-23T15:44:14;20.30;99.90
17715;DHT22;8977;50.902;4.314;2022-10-23T15:46:41;20.30;99.90
17715;DHT22;8977;50.902;4.314;2022-10-23T15:49:08;20.30;99.90
17715;DHT22;8977;50.902;4.314;2022-10-23T15:51:36;20.30;99.90
17715;DHT22;8977;50.902;4.314;2022-10-23T15:54:04;20.30;99.90
17715;DHT22;8977;50.902;4.314;2022-10-23T15:56:31;20.30;99.90
17715;DHT22;8977;50.902;4.314;2022-10-23T15:59:00;20.30;99.90
17715;DHT22;8977;50.902;4.314;2022-10-23T16:01:27;20.30;99.90
17715;DHT22;8977;50.902;4.314;2022-10-23T16:03:54;20.40;99.90
17715;DHT22;8977;50.902;4.314;2022-10-23T16:06:22;20.40;99.90